Time;durP1;ratioP1;P1;durP2;ratioP2;P2;SDS_P1;SDS_P2;PMS_P1;PMS_P2;Temp;Humidity;BMP_temperature;BMP_pressure;BME280_temperature;BME280_humidity;BME280_pressure;Samples;Min_cycle;Max_cycle;Signal;HPM_P1;HPM_P2
2021/04/30 00:00:51;;;;;;;21.12;10.38;;;;;;;5.98;69.90;100668.47;4407312;32;20117;-75
2021/04/30 00:03:18;;;;;;;21.10;9.65;;;;;;;5.89;70.19;100662.53;4402287;32;20437;-75
2021/04/30 00:05:43;;;;;;;21.92;8.63;;;;;;;5.82;70.47;100661.78;4393471;32;20052;-75
2021/04/30 00:08:09;;;;;;;25.25;8.45;;;;;;;5.73;70.56;100656.63;4395462;32;20418;-76
2021/04/30 00:10:35;;;;;;;17.02;6.97;;;;;;;5.69;70.36;100658.66;4393872;32;20096;-76
2021/04/30 00:13:00;;;;;;;20.05;7.45;;;;;;;5.69;70.19;100657.84;4395887;32;20763;-76
2021/04/30 00:15:26;;;;;;;16.45;7.43;;;;;;;5.69;70.00;100655.84;4395975;32;20147;-75
2021/04/30 00:17:52;;;;;;;18.85;6.93;;;;;;;5.63;70.10;100668.66;4400423;32;20041;-76
2021/04/30 00:20:18;;;;;;;17.60;7.20;;;;;;;5.54;70.37;100665.50;4381917;32;20039;-77
2021/04/30 00:22:43;;;;;;;15.55;6.70;;;;;;;5.53;70.40;100665.91;4383769;32;20120;-76
2021/04/30 00:25:10;;;;;;;16.17;7.43;;;;;;;5.49;70.41;100651.97;4397904;32;20100;-77
2021/04/30 00:27:35;;;;;;;14.50;7.62;;;;;;;5.47;70.57;100659.97;4399219;32;20027;-76
2021/04/30 00:30:06;;;;;;;17.30;8.40;;;;;;;5.45;70.64;100653.97;4382825;32;20422;-76
2021/04/30 00:32:32;;;;;;;16.55;8.18;;;;;;;5.45;70.83;100655.97;4394704;32;20466;-76
2021/04/30 00:35:00;;;;;;;20.15;7.85;;;;;;;5.47;70.71;100665.53;4396897;32;20148;-77
2021/04/30 00:37:27;;;;;;;16.70;7.50;;;;;;;5.47;70.84;100648.81;4391750;32;20146;-75
2021/04/30 00:39:52;;;;;;;13.93;6.57;;;;;;;5.41;71.02;100660.78;4395996;32;20074;-77
2021/04/30 00:42:19;;;;;;;16.60;7.55;;;;;;;5.43;70.92;100664.75;4398043;32;20034;-75
2021/04/30 00:44:45;;;;;;;15.02;7.97;;;;;;;5.45;70.75;100656.78;4399127;32;20116;-75
2021/04/30 00:47:33;;;;;;;16.17;7.55;;;;;;;5.44;70.72;100654.37;4396970;32;20069;-74
2021/04/30 00:50:03;;;;;;;21.75;9.38;;;;;;;5.48;70.58;100655.97;4396497;32;20145;-75
2021/04/30 00:52:29;;;;;;;19.90;9.07;;;;;;;5.47;70.57;100654.37;4395163;32;20078;-75
2021/04/30 00:54:55;;;;;;;23.17;10.98;;;;;;;5.46;70.65;100655.56;4397572;32;20471;-75
2021/04/30 00:57:23;;;;;;;23.58;10.35;;;;;;;5.44;70.74;100657.19;4394084;32;20088;-75
2021/04/30 00:59:49;;;;;;;25.33;12.45;;;;;;;5.42;70.87;100659.56;4395483;32;20104;-77
2021/04/30 01:02:15;;;;;;;22.10;11.20;;;;;;;5.38;70.75;100651.22;4390555;32;20043;-76
2021/04/30 01:04:41;;;;;;;23.73;10.25;;;;;;;5.35;70.91;100657.63;4393687;32;20046;-76
2021/04/30 01:07:07;;;;;;;25.62;10.60;;;;;;;5.32;71.21;100652.84;4391865;32;20117;-75
2021/04/30 01:09:33;;;;;;;22.40;10.30;;;;;;;5.31;71.21;100650.47;4397895;32;20034;-77
2021/04/30 01:11:59;;;;;;;17.83;9.30;;;;;;;5.27;71.40;100650.47;4397995;32;20401;-75
2021/04/30 01:14:25;;;;;;;19.30;9.50;;;;;;;5.24;71.56;100653.25;4393407;32;20099;-75
2021/04/30 01:16:51;;;;;;;19.60;9.73;;;;;;;5.29;71.45;100659.25;4396366;32;20042;-76
2021/04/30 01:19:20;;;;;;;25.67;9.90;;;;;;;5.15;71.48;100653.69;4397324;32;20405;-76
2021/04/30 01:21:51;;;;;;;19.08;8.10;;;;;;;5.16;71.22;100649.69;4393740;32;20053;-75
2021/04/30 01:24:19;;;;;;;18.45;8.05;;;;;;;5.20;71.20;100652.50;4394130;32;20058;-75
2021/04/30 01:26:45;;;;;;;19.00;9.43;;;;;;;5.17;71.40;100653.31;4394756;32;20027;-75
2021/04/30 01:29:11;;;;;;;17.20;8.45;;;;;;;5.12;71.35;100654.50;4395600;32;20449;-75
2021/04/30 01:31:37;;;;;;;13.10;7.95;;;;;;;5.11;71.23;100650.13;4396667;32;20081;-76
2021/04/30 01:34:03;;;;;;;17.50;8.60;;;;;;;4.81;71.77;100649.00;4396636;32;20103;-77
2021/04/30 01:36:31;;;;;;;17.95;8.18;;;;;;;4.64;72.43;100644.28;4395291;32;20035;-77
2021/04/30 01:38:57;;;;;;;18.42;8.85;;;;;;;4.91;71.37;100642.62;4395004;32;20206;-77
2021/04/30 01:41:24;;;;;;;22.58;9.13;;;;;;;4.83;71.49;100647.44;4393979;32;20104;-77
2021/04/30 01:43:49;;;;;;;20.30;8.18;;;;;;;4.81;71.94;100640.66;4395875;32;20068;-76
2021/04/30 01:46:16;;;;;;;19.48;8.70;;;;;;;4.74;72.00;100646.25;4395056;32;20046;-77
2021/04/30 01:48:41;;;;;;;26.48;10.38;;;;;;;4.74;72.19;100640.69;4396459;32;20103;-77
2021/04/30 01:51:07;;;;;;;14.85;7.72;;;;;;;4.73;72.04;100653.03;4398733;32;20350;-76
2021/04/30 01:53:35;;;;;;;19.17;8.82;;;;;;;4.67;72.05;100655.44;4394809;32;20034;-76
2021/04/30 01:56:07;;;;;;;21.37;7.60;;;;;;;4.41;72.91;100653.06;4395917;32;20081;-77
2021/04/30 01:58:34;;;;;;;12.60;6.05;;;;;;;4.26;73.62;100650.69;4398314;32;20132;-77
2021/04/30 02:01:00;;;;;;;14.90;6.85;;;;;;;4.22;73.30;100645.12;4399708;32;20076;-75
2021/04/30 02:03:26;;;;;;;19.70;8.23;;;;;;;4.18;73.25;100650.69;4394899;32;20513;-76
2021/04/30 02:05:52;;;;;;;13.07;7.40;;;;;;;4.10;73.32;100640.75;4397111;32;20492;-76
2021/04/30 02:08:18;;;;;;;19.00;8.20;;;;;;;4.35;72.64;100645.53;4402222;32;20060;-76
2021/04/30 02:10:45;;;;;;;18.50;8.32;;;;;;;4.38;72.53;100651.06;4395549;32;20046;-77
2021/04/30 02:13:12;;;;;;;20.62;9.02;;;;;;;4.36;72.76;100656.28;4404389;32;20041;-77
2021/04/30 02:15:40;;;;;;;16.23;8.00;;;;;;;4.23;73.12;100652.28;4394378;32;20078;-76
2021/04/30 02:18:07;;;;;;;15.15;7.57;;;;;;;4.24;73.28;100651.09;4396725;32;20054;-77
2021/04/30 02:20:33;;;;;;;17.02;7.45;;;;;;;4.21;73.17;100651.09;4400395;32;20084;-76
2021/04/30 02:23:00;;;;;;;14.55;5.68;;;;;;;4.17;72.92;100648.28;4395478;32;20825;-77
2021/04/30 02:25:26;;;;;;;12.93;5.28;;;;;;;4.13;72.98;100653.06;4387517;32;20038;-77
2021/04/30 02:27:54;;;;;;;11.90;5.95;;;;;;;4.14;72.61;100643.50;4399830;32;20038;-76
2021/04/30 02:30:22;;;;;;;10.50;5.37;;;;;;;4.18;72.17;100661.03;4397272;32;20070;-76
2021/04/30 02:32:50;;;;;;;15.35;5.47;;;;;;;4.21;71.82;100653.87;4400221;32;20046;-76
2021/04/30 02:37:58;;;;;;;14.52;6.00;;;;;;;4.56;71.18;100653.84;3983446;32;15077922;-77
2021/04/30 02:40:27;;;;;;;17.73;7.28;;;;;;;4.56;71.18;100653.84;4441408;32;20056;-75
2021/04/30 02:42:56;;;;;;;15.00;6.75;;;;;;;4.16;71.62;100657.84;4442046;32;20095;-75
2021/04/30 02:45:22;;;;;;;13.82;6.10;;;;;;;3.87;72.61;100654.22;4440887;32;20064;-76
2021/04/30 02:47:50;;;;;;;17.05;6.60;;;;;;;3.82;73.01;100645.47;4438315;32;20049;-76
2021/04/30 02:50:19;;;;;;;14.65;7.57;;;;;;;3.79;73.58;100649.06;4438571;32;20079;-76
2021/04/30 02:52:46;;;;;;;15.50;8.75;;;;;;;4.04;72.80;100652.66;4442317;32;20128;-76
2021/04/30 02:55:14;;;;;;;16.77;7.53;;;;;;;3.86;73.89;100649.06;4439078;32;20061;-75
2021/04/30 02:57:40;;;;;;;17.62;8.38;;;;;;;4.16;72.98;100660.63;4441039;32;20116;-75
2021/04/30 03:00:09;;;;;;;16.90;7.65;;;;;;;4.18;72.65;100661.03;4440406;32;20092;-76
2021/04/30 03:02:35;;;;;;;18.02;8.32;;;;;;;4.21;72.55;100646.31;4426690;32;20100;-76
2021/04/30 03:05:01;;;;;;;17.87;7.62;;;;;;;4.24;72.31;100647.50;4424283;32;20453;-76
2021/04/30 03:07:27;;;;;;;18.08;8.02;;;;;;;4.23;71.96;100648.72;4425455;32;20042;-76
2021/04/30 03:09:53;;;;;;;16.87;8.73;;;;;;;4.17;71.95;100642.72;4418687;32;20038;-77
2021/04/30 03:12:19;;;;;;;18.60;8.40;;;;;;;4.23;71.86;100643.91;4428283;32;20406;-75
2021/04/30 03:14:45;;;;;;;18.85;8.52;;;;;;;3.96;72.39;100643.50;4424086;32;20065;-76
2021/04/30 03:17:12;;;;;;;16.42;8.27;;;;;;;3.88;72.66;100644.72;4427452;32;20145;-75
2021/04/30 03:19:37;;;;;;;14.57;7.07;;;;;;;4.12;72.10;100645.91;4425371;32;20018;-77
2021/04/30 03:22:03;;;;;;;14.73;6.40;;;;;;;4.15;71.89;100637.56;4424471;32;20038;-77
2021/04/30 03:24:29;;;;;;;12.75;6.40;;;;;;;4.09;71.50;100632.78;4425077;32;20461;-76
2021/04/30 03:26:55;;;;;;;11.75;6.50;;;;;;;4.07;71.48;100635.16;4424825;32;20476;-76
2021/04/30 03:29:20;;;;;;;13.93;6.30;;;;;;;4.15;71.25;100631.97;4428213;32;20075;-74
2021/04/30 03:31:46;;;;;;;12.88;5.78;;;;;;;4.17;71.18;100633.59;4427183;32;20419;-76
2021/04/30 03:34:12;;;;;;;15.20;6.32;;;;;;;4.05;70.58;100629.19;4426678;32;20101;-76
2021/04/30 03:36:38;;;;;;;12.70;6.28;;;;;;;4.02;71.25;100628.00;4424541;32;20351;-76
2021/04/30 03:39:06;;;;;;;12.75;6.00;;;;;;;3.97;71.71;100631.19;4423988;32;20512;-75
2021/04/30 03:41:31;;;;;;;13.82;6.37;;;;;;;3.93;71.77;100630.37;4425049;32;20512;-77
2021/04/30 03:43:57;;;;;;;16.55;6.20;;;;;;;3.87;71.82;100633.97;4424004;32;20057;-75
2021/04/30 03:46:23;;;;;;;15.38;6.22;;;;;;;3.82;72.10;100632.38;4426313;32;20065;-75
2021/04/30 03:48:49;;;;;;;12.55;6.30;;;;;;;3.87;71.64;100628.41;4416376;32;20148;-76
2021/04/30 03:51:14;;;;;;;14.93;5.80;;;;;;;3.86;71.76;100635.16;4413907;32;20070;-75
2021/04/30 03:53:40;;;;;;;11.02;6.18;;;;;;;3.82;71.76;100634.34;4415150;32;20061;-76
2021/04/30 03:56:06;;;;;;;15.90;6.10;;;;;;;3.80;71.94;100636.72;4412131;32;20101;-75
2021/04/30 03:58:32;;;;;;;22.80;6.68;;;;;;;3.77;72.17;100632.75;4415207;32;20098;-76
2021/04/30 04:00:57;;;;;;;14.52;6.82;;;;;;;3.75;72.27;100626.78;4412927;32;20018;-76
2021/04/30 04:03:23;;;;;;;23.73;7.53;;;;;;;3.77;72.16;100627.19;4417386;32;20041;-75
2021/04/30 04:05:49;;;;;;;12.30;6.50;;;;;;;3.76;72.51;100633.94;4414913;32;20033;-76
2021/04/30 04:08:14;;;;;;;18.73;7.55;;;;;;;3.77;72.58;100629.97;4414413;32;20462;-77
2021/04/30 04:10:40;;;;;;;21.92;8.20;;;;;;;3.78;72.49;100631.56;4415086;32;20093;-76
2021/04/30 04:13:23;;;;;;;21.45;8.25;;;;;;;3.73;72.61;100631.16;4411265;32;20125;-76
2021/04/30 04:15:50;;;;;;;17.30;8.15;;;;;;;3.78;72.77;100630.78;4414594;32;20429;-76
2021/04/30 04:18:17;;;;;;;14.75;8.27;;;;;;;3.74;72.89;100630.75;4413917;32;20091;-76
2021/04/30 04:20:43;;;;;;;16.75;8.35;;;;;;;3.71;73.04;100630.75;4416520;32;20086;-78
2021/04/30 04:23:09;;;;;;;19.02;8.18;;;;;;;3.68;73.11;100639.88;4413985;32;20018;-75
2021/04/30 04:25:36;;;;;;;13.52;7.28;;;;;;;3.41;74.00;100633.06;4413773;32;20034;-76
2021/04/30 04:28:02;;;;;;;19.42;8.30;;;;;;;3.38;74.01;100631.06;4415622;32;20122;-75
2021/04/30 04:30:28;;;;;;;12.52;6.43;;;;;;;3.31;74.32;100634.63;4414663;32;20034;-75
2021/04/30 04:32:54;;;;;;;18.95;7.47;;;;;;;3.23;74.52;100640.56;4417332;32;20068;-77
2021/04/30 04:35:20;;;;;;;13.20;7.07;;;;;;;3.25;74.40;100636.19;4414730;32;20493;-75
2021/04/30 04:37:46;;;;;;;17.35;8.77;;;;;;;3.28;74.47;100640.19;4413434;32;20034;-76
2021/04/30 04:40:13;;;;;;;16.77;7.97;;;;;;;3.24;74.62;100633.81;4415971;32;20033;-76
2021/04/30 04:42:40;;;;;;;17.73;7.93;;;;;;;3.23;74.72;100641.38;4412118;32;20072;-75
2021/04/30 04:45:07;;;;;;;17.87;8.23;;;;;;;3.27;74.84;100642.16;4414828;32;20064;-77
2021/04/30 04:47:32;;;;;;;18.83;7.57;;;;;;;3.46;74.37;100641.03;4406334;32;20073;-77
2021/04/30 04:49:58;;;;;;;16.30;8.07;;;;;;;3.60;73.56;100646.63;4415129;32;20437;-76
2021/04/30 04:52:24;;;;;;;22.62;7.75;;;;;;;3.31;74.52;100647.72;4414742;32;20030;-75
2021/04/30 04:54:50;;;;;;;15.70;7.60;;;;;;;3.23;74.55;100646.13;4415208;32;20225;-76
2021/04/30 04:57:16;;;;;;;20.75;7.95;;;;;;;3.26;74.62;100646.16;4412424;32;20068;-76
2021/04/30 04:59:41;;;;;;;20.95;7.35;;;;;;;3.34;74.70;100646.94;4413940;32;20393;-76
2021/04/30 05:02:07;;;;;;;18.58;7.10;;;;;;;3.41;74.57;100653.31;4412115;32;20034;-76
2021/04/30 05:04:32;;;;;;;22.67;7.10;;;;;;;3.46;74.29;100649.38;4415269;32;20068;-77
2021/04/30 05:06:58;;;;;;;16.77;7.75;;;;;;;3.53;73.77;100650.19;4415753;32;20410;-75
2021/04/30 05:09:24;;;;;;;20.83;8.23;;;;;;;3.55;73.56;100644.22;4413441;32;20677;-76
2021/04/30 05:11:50;;;;;;;17.40;8.02;;;;;;;3.60;73.65;100646.63;4414729;32;20513;-76
2021/04/30 05:14:16;;;;;;;19.27;7.97;;;;;;;3.69;73.31;100655.41;4412582;32;20423;-76
2021/04/30 05:16:42;;;;;;;16.45;8.00;;;;;;;3.71;73.04;100653.00;4414664;32;20500;-76
2021/04/30 05:19:08;;;;;;;22.42;7.78;;;;;;;3.78;72.81;100653.03;4414252;32;20889;-75
2021/04/30 05:21:35;;;;;;;15.65;7.80;;;;;;;3.83;72.86;100650.66;4412571;32;20085;-77
2021/04/30 05:24:00;;;;;;;20.40;7.70;;;;;;;3.88;72.60;100650.28;4414588;32;20145;-75
2021/04/30 05:26:28;;;;;;;22.95;7.03;;;;;;;4.01;72.37;100647.88;4415165;32;20017;-76
2021/04/30 05:28:57;;;;;;;18.50;7.72;;;;;;;4.09;72.04;100657.84;4415622;32;20038;-75
2021/04/30 05:31:23;;;;;;;21.52;7.32;;;;;;;4.23;71.79;100655.06;4411687;32;20038;-76
2021/04/30 05:33:50;;;;;;;17.77;7.43;;;;;;;4.30;71.00;100657.06;4416983;32;20026;-75
2021/04/30 05:36:16;;;;;;;17.52;6.85;;;;;;;4.41;70.56;100658.63;4412572;32;20060;-76
2021/04/30 05:38:41;;;;;;;17.85;8.27;;;;;;;4.48;70.32;100669.00;4412893;32;20433;-76
2021/04/30 05:41:07;;;;;;;22.17;8.40;;;;;;;4.56;69.99;100667.78;4415787;32;20462;-75
2021/04/30 05:43:32;;;;;;;14.95;8.05;;;;;;;4.62;69.69;100663.38;4416323;32;20116;-75
2021/04/30 05:45:58;;;;;;;20.35;8.38;;;;;;;4.73;69.80;100667.78;4413335;32;20045;-76
2021/04/30 05:48:24;;;;;;;24.60;7.82;;;;;;;4.83;69.46;100666.94;4410122;32;20062;-77
2021/04/30 05:50:50;;;;;;;18.52;8.10;;;;;;;4.92;69.00;100672.91;4412849;32;20041;-77
2021/04/30 05:53:15;;;;;;;19.92;8.05;;;;;;;4.96;68.90;100668.13;4410913;32;20419;-76
2021/04/30 05:55:44;;;;;;;16.12;8.02;;;;;;;5.08;68.68;100673.25;4410626;32;20444;-75
2021/04/30 05:58:10;;;;;;;20.17;8.73;;;;;;;5.18;68.33;100666.84;4413423;32;20022;-75
2021/04/30 06:00:35;;;;;;;23.80;9.50;;;;;;;5.27;67.90;100674.78;4408965;32;20466;-77
2021/04/30 06:03:01;;;;;;;28.10;10.80;;;;;;;5.35;67.68;100667.97;4411082;32;20109;-76
2021/04/30 06:05:26;;;;;;;25.12;8.93;;;;;;;5.44;67.46;100671.94;4410636;32;20053;-77
2021/04/30 06:07:52;;;;;;;25.55;9.77;;;;;;;5.48;67.56;100666.31;4414250;32;20521;-77
2021/04/30 06:10:18;;;;;;;28.33;10.07;;;;;;;5.47;68.25;100664.75;4410295;32;20384;-77
2021/04/30 06:12:43;;;;;;;33.00;10.43;;;;;;;5.58;67.69;100680.22;4415912;32;20446;-76
2021/04/30 06:15:09;;;;;;;27.45;9.70;;;;;;;5.72;67.44;100676.56;4413818;32;20408;-77
2021/04/30 06:17:35;;;;;;;21.60;8.60;;;;;;;5.91;66.86;100684.47;4411254;32;20053;-77
2021/04/30 06:20:01;;;;;;;22.73;8.80;;;;;;;6.06;66.19;100672.81;4415094;32;20088;-77
2021/04/30 06:22:26;;;;;;;23.58;9.95;;;;;;;6.23;65.92;100673.06;4414629;32;20038;-77
2021/04/30 06:24:52;;;;;;;33.60;11.12;;;;;;;6.29;65.85;100666.63;4412945;32;20041;-77
2021/04/30 06:27:18;;;;;;;22.37;9.48;;;;;;;6.39;65.87;100676.12;4407625;32;20078;-77
2021/04/30 06:29:44;;;;;;;18.75;8.88;;;;;;;6.55;65.47;100679.19;4415405;32;20029;-77
2021/04/30 06:32:10;;;;;;;47.35;8.85;;;;;;;6.73;64.84;100680.63;4404123;32;20066;-78
2021/04/30 06:34:35;;;;;;;22.45;8.90;;;;;;;6.81;64.48;100681.37;4404174;32;20109;-76
2021/04/30 06:37:02;;;;;;;33.92;8.45;;;;;;;6.96;64.10;100682.81;4410247;32;20110;-76
2021/04/30 06:39:28;;;;;;;19.45;9.07;;;;;;;7.11;63.74;100687.03;4409713;32;20070;-75
2021/04/30 06:41:56;;;;;;;23.73;8.82;;;;;;;7.22;62.91;100679.31;4405004;32;20539;-74
2021/04/30 06:44:21;;;;;;;22.77;7.87;;;;;;;7.41;62.77;100684.28;4403150;32;20139;-75
2021/04/30 06:46:47;;;;;;;19.87;8.07;;;;;;;7.56;62.18;100682.91;4407858;32;20394;-75
2021/04/30 06:49:13;;;;;;;18.73;7.37;;;;;;;7.75;61.58;100685.03;4402554;32;20034;-74
2021/04/30 06:51:38;;;;;;;26.95;8.30;;;;;;;7.92;60.73;100681.22;4396632;32;20038;-74
2021/04/30 06:54:04;;;;;;;18.58;8.30;;;;;;;8.05;60.23;100690.63;4398948;32;20132;-72
2021/04/30 06:56:32;;;;;;;28.55;9.70;;;;;;;8.16;59.50;100697.66;4398130;32;20585;-74
2021/04/30 06:58:58;;;;;;;21.80;8.55;;;;;;;8.33;59.50;100687.41;4395333;32;20089;-74
2021/04/30 07:01:24;;;;;;;36.13;9.02;;;;;;;8.41;58.79;100694.50;4392088;32;20068;-73
2021/04/30 07:03:50;;;;;;;24.37;7.72;;;;;;;8.51;58.86;100689.94;4396689;32;20077;-74
2021/04/30 07:06:19;;;;;;;27.23;6.30;;;;;;;8.62;58.22;100693.34;4398286;32;20493;-74
2021/04/30 07:08:46;;;;;;;37.72;7.82;;;;;;;8.70;57.61;100692.81;4399132;32;20054;-74
2021/04/30 07:11:12;;;;;;;26.08;6.35;;;;;;;8.65;58.38;100696.09;4390826;32;20094;-73
2021/04/30 07:13:39;;;;;;;15.40;4.93;;;;;;;8.72;58.18;100686.78;4397458;32;20412;-74
2021/04/30 07:16:06;;;;;;;22.62;6.50;;;;;;;8.72;57.82;100695.19;4400801;32;20409;-73
2021/04/30 07:18:32;;;;;;;18.58;5.72;;;;;;;8.80;57.79;100697.44;4405650;32;20092;-74
2021/04/30 07:20:58;;;;;;;15.70;5.80;;;;;;;8.89;57.74;100702.47;4399386;32;20094;-74
2021/04/30 07:23:25;;;;;;;16.08;5.45;;;;;;;9.00;57.60;100689.88;4399008;32;20400;-73
2021/04/30 07:25:51;;;;;;;17.83;6.30;;;;;;;9.10;57.28;100688.88;4402139;32;20448;-73
2021/04/30 07:28:17;;;;;;;23.70;6.78;;;;;;;9.15;57.44;100687.56;4403232;32;20078;-71
2021/04/30 07:30:44;;;;;;;22.95;7.20;;;;;;;9.25;56.95;100687.38;4404164;32;20029;-73
2021/04/30 07:33:11;;;;;;;16.58;6.07;;;;;;;9.38;56.65;100691.13;4402940;32;20053;-74
2021/04/30 07:35:57;;;;;;;19.37;4.97;;;;;;;9.46;56.67;100692.56;4401080;32;20125;-74
2021/04/30 07:38:23;;;;;;;21.60;5.82;;;;;;;9.65;56.27;100690.97;4404286;32;20092;-74
2021/04/30 07:40:49;;;;;;;13.73;4.72;;;;;;;9.65;56.18;100688.97;4405548;32;20403;-73
2021/04/30 07:43:16;;;;;;;23.80;5.47;;;;;;;9.81;55.68;100679.78;4404513;32;20134;-76
2021/04/30 07:45:45;;;;;;;12.10;4.25;;;;;;;9.79;55.19;100687.87;4407085;32;20037;-75
2021/04/30 07:48:11;;;;;;;12.48;4.47;;;;;;;9.86;54.50;100688.50;4398252;32;20058;-76
2021/04/30 07:50:37;;;;;;;14.13;3.87;;;;;;;10.01;54.88;100683.34;4408289;32;20072;-76
2021/04/30 07:53:03;;;;;;;19.73;4.22;;;;;;;10.39;53.55;100684.50;4403964;32;20084;-76
2021/04/30 07:55:30;;;;;;;10.18;3.25;;;;;;;10.63;52.66;100693.53;4405396;32;20332;-76
2021/04/30 07:57:56;;;;;;;20.55;4.43;;;;;;;11.02;51.54;100696.94;4401162;32;20092;-77
2021/04/30 08:00:22;;;;;;;14.15;3.80;;;;;;;11.24;51.28;100697.16;4397416;32;20085;-75
2021/04/30 08:02:48;;;;;;;13.27;3.72;;;;;;;11.53;50.14;100697.94;4401508;32;20030;-76
2021/04/30 08:05:14;;;;;;;11.57;3.33;;;;;;;11.80;49.50;100704.03;4398698;32;20405;-75
2021/04/30 08:07:41;;;;;;;18.95;4.37;;;;;;;11.84;49.38;100699.06;4393759;32;20093;-76
2021/04/30 08:10:09;;;;;;;9.93;3.40;;;;;;;11.57;49.60;100705.06;4398108;32;20846;-76
2021/04/30 08:12:34;;;;;;;15.73;3.92;;;;;;;11.36;49.82;100705.69;4403562;32;20042;-77
2021/04/30 08:15:00;;;;;;;12.57;3.40;;;;;;;11.41;49.79;100701.50;4398543;32;20128;-80
2021/04/30 08:17:26;;;;;;;12.63;3.40;;;;;;;11.29;50.15;100699.44;4397388;32;20082;-76
2021/04/30 08:19:57;;;;;;;12.32;3.58;;;;;;;11.12;50.23;100707.13;4399704;32;20513;-77
2021/04/30 08:22:25;;;;;;;11.55;3.70;;;;;;;11.22;50.20;100705.25;4401304;32;20085;-76
2021/04/30 08:24:51;;;;;;;25.25;5.75;;;;;;;11.33;50.15;100705.75;4398302;32;20687;-75
2021/04/30 08:27:19;;;;;;;15.02;4.57;;;;;;;11.64;49.70;100701.28;4395056;32;20150;-76
2021/04/30 08:29:45;;;;;;;10.52;3.58;;;;;;;12.02;48.81;100702.94;4396042;32;20514;-76
2021/04/30 08:32:11;;;;;;;14.55;4.20;;;;;;;12.08;48.13;100697.53;4400521;32;20085;-76
2021/04/30 08:34:36;;;;;;;10.65;3.80;;;;;;;12.30;47.43;100703.31;4395283;32;20146;-76
2021/04/30 08:37:02;;;;;;;10.80;3.30;;;;;;;12.61;47.18;100710.72;4397920;32;20114;-76
2021/04/30 08:39:28;;;;;;;13.20;3.15;;;;;;;12.68;46.67;100702.03;4400158;32;20129;-77
2021/04/30 08:41:54;;;;;;;10.25;3.22;;;;;;;12.82;46.27;100703.59;4400938;32;20046;-77
2021/04/30 08:44:19;;;;;;;15.38;3.87;;;;;;;12.68;46.35;100699.22;4399784;32;20498;-77
2021/04/30 08:46:45;;;;;;;13.00;3.80;;;;;;;12.43;46.80;100713.34;4399977;32;20057;-76
2021/04/30 08:49:11;;;;;;;8.20;3.03;;;;;;;12.38;46.57;100710.28;4399139;32;20216;-74
2021/04/30 08:51:38;;;;;;;9.00;2.87;;;;;;;12.17;46.86;100711.75;4398995;32;20133;-75
2021/04/30 08:54:05;;;;;;;9.85;3.30;;;;;;;12.21;46.73;100706.78;4397748;32;20050;-75
2021/04/30 08:56:31;;;;;;;8.20;3.03;;;;;;;12.25;46.86;100704.66;4397651;32;20042;-77
2021/04/30 08:58:58;;;;;;;8.20;2.70;;;;;;;12.38;46.69;100708.28;4400434;32;20086;-74
2021/04/30 09:01:24;;;;;;;28.08;17.85;;;;;;;12.46;46.09;100708.84;4398241;32;20093;-74
2021/04/30 09:03:51;;;;;;;11.90;3.33;;;;;;;12.91;45.37;100706.50;4398955;32;20110;-75
2021/04/30 09:06:35;;;;;;;10.02;2.87;;;;;;;12.93;44.93;100704.03;4395907;32;20070;-75
2021/04/30 09:09:08;;;;;;;11.38;3.08;;;;;;;13.79;43.03;100701.31;4394961;32;20112;-74
2021/04/30 09:11:38;;;;;;;14.05;3.55;;;;;;;14.52;40.64;100705.34;4395631;32;20041;-75
2021/04/30 09:19:44;;;;;;;11.47;2.70;;;;;;;16.31;35.68;100715.16;3973035;32;15020318;-78
2021/04/30 09:22:10;;;;;;;9.23;3.58;;;;;;;16.31;35.68;100715.16;4430610;32;20193;-74
2021/04/30 09:24:37;;;;;;;7.82;2.90;;;;;;;15.75;36.63;100721.47;4430443;32;21197;-76
2021/04/30 09:27:05;;;;;;;15.60;4.03;;;;;;;15.94;36.56;100734.34;4432672;32;20053;-75
2021/04/30 09:29:33;;;;;;;9.73;3.70;;;;;;;15.96;36.85;100728.19;4431379;32;20133;-77
2021/04/30 09:32:00;;;;;;;7.05;2.97;;;;;;;15.79;36.42;100721.28;4428268;32;20125;-77
2021/04/30 09:39:56;;;;;;;14.60;3.60;;;;;;;18.51;31.32;100719.06;3948854;32;15602876;-76
2021/04/30 09:42:26;;;;;;;6.18;2.70;;;;;;;18.51;31.32;100719.06;4419137;32;20093;-77
2021/04/30 09:44:56;;;;;;;12.48;2.87;;;;;;;18.15;30.68;100712.94;4418395;32;21056;-77
2021/04/30 09:47:24;;;;;;;22.13;3.95;;;;;;;18.45;30.08;100715.31;4418471;32;20103;-74
2021/04/30 09:49:55;;;;;;;4.93;2.62;;;;;;;18.44;29.58;100715.81;4418619;32;20050;-76
2021/04/30 09:52:23;;;;;;;10.40;3.17;;;;;;;17.71;30.22;100708.00;4420465;32;20041;-76
2021/04/30 09:54:50;;;;;;;8.45;2.90;;;;;;;17.59;30.99;100709.09;4415053;32;20609;-73
2021/04/30 10:02:31;;;;;;;13.07;3.17;;;;;;;17.80;29.16;100705.06;3971054;32;15021772;-75
2021/04/30 10:05:08;;;;;;;7.62;2.15;;;;;;;17.22;28.70;100704.94;4430518;32;20029;-75
2021/04/30 10:07:35;;;;;;;9.65;2.78;;;;;;;17.28;29.60;100708.66;4430705;32;20069;-75
2021/04/30 10:12:38;;;;;;;8.55;2.75;;;;;;;17.60;29.69;100704.97;3966611;32;15021131;-76
2021/04/30 10:15:07;;;;;;;7.62;2.62;;;;;;;17.53;29.79;100707.38;4416074;32;20092;-77
2021/04/30 10:17:33;;;;;;;8.00;2.85;;;;;;;17.46;29.68;100704.94;4415193;32;20050;-76
2021/04/30 10:20:00;;;;;;;9.55;2.45;;;;;;;17.55;29.50;100708.47;4417167;32;20100;-74
2021/04/30 10:22:28;;;;;;;7.40;2.30;;;;;;;17.64;28.99;100705.53;4414984;32;20140;-76
2021/04/30 10:24:56;;;;;;;13.02;2.90;;;;;;;17.85;28.87;100704.41;4413845;32;20435;-75
2021/04/30 10:27:27;;;;;;;10.30;2.45;;;;;;;18.31;27.70;100696.12;4415434;32;20046;-75
2021/04/30 10:30:01;;;;;;;13.77;2.70;;;;;;;19.24;26.04;100701.72;4413017;32;20076;-75
2021/04/30 10:32:32;;;;;;;6.35;2.50;;;;;;;19.95;25.54;100707.50;4416172;32;20060;-76
2021/04/30 10:35:02;;;;;;;8.88;2.33;;;;;;;21.02;24.58;100708.66;4415895;32;20077;-75
2021/04/30 10:37:31;;;;;;;13.25;2.70;;;;;;;21.03;23.83;100705.28;4418465;32;20085;-76
2021/04/30 10:40:00;;;;;;;15.50;3.17;;;;;;;20.62;24.52;100700.31;4411888;32;20462;-75
2021/04/30 10:42:29;;;;;;;18.02;3.80;;;;;;;20.09;25.77;100702.97;4415763;32;20072;-75
2021/04/30 10:45:01;;;;;;;10.57;2.87;;;;;;;19.78;26.32;100698.75;4416665;32;20493;-76
2021/04/30 10:47:28;;;;;;;6.00;2.40;;;;;;;19.21;27.70;100697.00;4417982;32;20065;-77
2021/04/30 10:50:16;;;;;;;8.75;2.58;;;;;;;18.82;28.65;100698.53;4418751;32;20099;-76
2021/04/30 10:52:43;;;;;;;6.75;2.62;;;;;;;17.98;28.90;100703.34;4415435;32;20066;-78
2021/04/30 10:55:13;;;;;;;9.57;3.28;;;;;;;18.05;29.26;100694.37;4413842;32;20077;-78
2021/04/30 10:58:00;;;;;;;6.70;3.03;;;;;;;17.95;30.00;100695.78;4416628;32;20053;-75
2021/04/30 11:00:40;;;;;;;8.38;2.80;;;;;;;18.21;29.62;100688.19;4415704;32;20151;-78
2021/04/30 11:03:23;;;;;;;6.53;2.80;;;;;;;18.97;28.94;100693.56;4405032;32;20099;-76
2021/04/30 11:06:00;;;;;;;4.07;2.72;;;;;;;18.90;27.88;100691.13;4406454;32;20085;-77
2021/04/30 11:11:38;;;;;;;6.70;3.55;;;;;;;19.23;27.11;100691.56;3974525;32;15027432;-80
2021/04/30 11:14:25;;;;;;;6.87;3.90;;;;;;;19.79;26.12;100696.69;4429124;32;20493;-77
2021/04/30 11:16:53;;;;;;;8.63;3.62;;;;;;;20.09;25.88;100691.53;4426335;32;20516;-78
2021/04/30 11:19:21;;;;;;;6.97;2.67;;;;;;;20.28;24.78;100696.38;4428858;32;20642;-78
2021/04/30 11:21:51;;;;;;;7.80;3.65;;;;;;;19.61;26.22;100680.63;4427646;32;20029;-78
2021/04/30 11:27:29;;;;;;;11.73;3.70;;;;;;;19.27;27.30;100677.91;3980877;32;15024955;-77
2021/04/30 11:30:19;;;;;;;12.77;4.20;;;;;;;19.27;27.30;100677.91;4432947;32;20094;-78
2021/04/30 11:32:51;;;;;;;8.95;3.42;;;;;;;18.70;27.49;100679.69;4435374;32;20072;-77
2021/04/30 11:35:18;;;;;;;8.63;3.35;;;;;;;18.33;27.58;100675.69;4432376;32;20077;-78
2021/04/30 11:37:48;;;;;;;13.15;3.70;;;;;;;17.99;28.13;100665.81;4434691;32;20231;-74
2021/04/30 11:40:15;;;;;;;11.27;3.62;;;;;;;17.79;28.30;100668.56;4431350;32;20112;-78
2021/04/30 11:42:41;;;;;;;10.38;4.85;;;;;;;17.41;29.16;100660.84;4434448;32;20467;-75
2021/04/30 11:45:08;;;;;;;9.65;4.25;;;;;;;17.23;29.48;100658.13;4434360;32;20106;-76
2021/04/30 11:47:36;;;;;;;10.20;3.92;;;;;;;17.34;29.25;100666.12;4434866;32;20422;-76
2021/04/30 11:50:04;;;;;;;10.63;3.55;;;;;;;17.53;28.50;100665.50;4430365;32;20126;-76